createdAt,value
2023-04-24T00:01:03.416Z,10.00
2023-04-24T00:03:31.098Z,10.00
2023-04-24T00:05:57.981Z,10.00
2023-04-24T00:08:24.934Z,10.00
2023-04-24T00:10:53.158Z,10.00
2023-04-24T00:13:19.904Z,10.00
2023-04-24T00:15:46.779Z,10.00
2023-04-24T00:18:13.652Z,10.00
2023-04-24T00:20:40.748Z,10.00
2023-04-24T00:23:07.719Z,10.00
2023-04-24T00:25:34.367Z,9.90
2023-04-24T00:28:01.271Z,10.00
2023-04-24T00:30:27.979Z,9.90
2023-04-24T00:32:54.702Z,9.90
2023-04-24T00:35:21.520Z,10.00
2023-04-24T00:37:48.456Z,9.90
2023-04-24T00:40:15.302Z,9.90
2023-04-24T00:42:42.744Z,9.90
2023-04-24T00:45:09.850Z,9.90
2023-04-24T00:47:37.223Z,9.90
2023-04-24T00:50:06.338Z,9.90
2023-04-24T00:52:33.749Z,9.90
2023-04-24T00:55:00.582Z,9.90
2023-04-24T00:57:27.858Z,9.90
2023-04-24T00:59:54.932Z,9.90
2023-04-24T01:02:23.505Z,9.90
2023-04-24T01:04:53.989Z,9.90
2023-04-24T01:07:22.172Z,9.90
2023-04-24T01:09:51.899Z,9.80
2023-04-24T01:12:19.575Z,9.90
2023-04-24T01:14:46.692Z,9.90
2023-04-24T01:17:13.493Z,9.90
2023-04-24T01:19:41.563Z,9.90
2023-04-24T01:22:13.803Z,9.90
2023-04-24T01:24:40.896Z,9.90
2023-04-24T01:27:08.806Z,9.90
2023-04-24T01:29:36.235Z,9.90
2023-04-24T01:32:04.586Z,9.90
2023-04-24T01:34:31.919Z,9.90
2023-04-24T01:36:58.987Z,9.80
2023-04-24T01:39:26.683Z,9.90
2023-04-24T01:41:54.658Z,9.90
2023-04-24T01:44:21.760Z,9.80
2023-04-24T01:46:48.776Z,9.80
2023-04-24T01:49:15.637Z,9.70
2023-04-24T01:51:42.401Z,9.70
2023-04-24T01:54:09.148Z,9.70
2023-04-24T01:56:36.970Z,9.70
2023-04-24T01:59:04.934Z,9.70
2023-04-24T02:01:37.209Z,9.70
2023-04-24T02:04:04.769Z,9.70
2023-04-24T02:06:32.460Z,9.70
2023-04-24T02:09:02.728Z,9.60
2023-04-24T02:11:29.431Z,9.70
2023-04-24T02:13:56.108Z,9.70
2023-04-24T02:16:22.761Z,9.70
2023-04-24T02:18:49.515Z,9.70
2023-04-24T02:21:16.323Z,9.70
2023-04-24T02:23:42.995Z,9.60
2023-04-24T02:26:09.890Z,9.60
2023-04-24T02:28:36.513Z,9.60
2023-04-24T02:31:03.392Z,9.60
2023-04-24T02:33:30.340Z,9.60
2023-04-24T02:35:57.043Z,9.60
2023-04-24T02:38:23.705Z,9.50
2023-04-24T02:40:50.434Z,9.50
2023-04-24T02:43:17.119Z,9.50
2023-04-24T02:45:43.785Z,9.50
2023-04-24T02:48:10.552Z,9.50
2023-04-24T02:50:37.219Z,9.40
2023-04-24T02:53:04.116Z,9.50
2023-04-24T02:55:31.215Z,9.50
2023-04-24T02:57:57.965Z,9.60
2023-04-24T03:00:24.760Z,9.50
2023-04-24T03:02:51.666Z,9.50
2023-04-24T03:05:18.510Z,9.50
2023-04-24T03:07:46.468Z,9.50
2023-04-24T03:10:13.290Z,9.50
2023-04-24T03:12:40.219Z,9.50
2023-04-24T03:15:07.735Z,9.50
2023-04-24T03:17:34.443Z,9.40
2023-04-24T03:20:01.367Z,9.40
2023-04-24T03:22:28.274Z,9.50
2023-04-24T03:24:55.884Z,9.40
2023-04-24T03:27:22.706Z,9.40
2023-04-24T03:29:49.368Z,9.40
2023-04-24T03:32:15.996Z,9.30
2023-04-24T03:34:42.725Z,9.30
2023-04-24T03:37:09.385Z,9.30
2023-04-24T03:39:36.392Z,9.30
2023-04-24T03:42:03.503Z,9.30
2023-04-24T03:44:30.153Z,9.30
2023-04-24T03:46:56.887Z,9.20
2023-04-24T03:49:23.528Z,9.30
2023-04-24T03:51:50.350Z,9.20
2023-04-24T03:54:17.078Z,9.20
2023-04-24T03:56:44.077Z,9.10
2023-04-24T03:59:10.826Z,9.10
2023-04-24T04:01:38.096Z,9.10
2023-04-24T04:04:09.150Z,9.00
2023-04-24T04:06:37.217Z,9.00
2023-04-24T04:09:04.208Z,9.00
2023-04-24T04:11:33.644Z,9.00
2023-04-24T04:14:00.543Z,9.00
2023-04-24T04:16:27.296Z,9.00
2023-04-24T04:18:53.988Z,9.00
2023-04-24T04:21:21.001Z,9.10
2023-04-24T04:23:47.786Z,9.00
2023-04-24T04:26:14.677Z,9.10
2023-04-24T04:28:41.810Z,9.10
2023-04-24T04:31:11.778Z,9.10
2023-04-24T04:33:40.419Z,9.10
2023-04-24T04:36:07.207Z,9.10
2023-04-24T04:38:34.908Z,9.10
2023-04-24T04:41:01.887Z,9.10
2023-04-24T04:43:28.500Z,9.20
2023-04-24T04:45:57.082Z,9.10
2023-04-24T04:48:23.942Z,8.90
2023-04-24T04:50:51.059Z,8.90
2023-04-24T04:53:21.418Z,8.80
2023-04-24T04:55:48.318Z,8.70
2023-04-24T04:58:15.014Z,8.70
2023-04-24T05:00:42.670Z,8.60
2023-04-24T05:03:20.781Z,8.60
2023-04-24T05:05:48.389Z,8.70
2023-04-24T05:10:44.932Z,8.60
2023-04-24T05:13:13.999Z,8.60
2023-04-24T05:15:41.012Z,8.60
2023-04-24T05:18:07.781Z,8.60
2023-04-24T05:20:34.594Z,8.60
2023-04-24T05:23:01.579Z,8.60
2023-04-24T05:25:28.228Z,8.60
2023-04-24T05:27:55.103Z,8.60
2023-04-24T05:30:21.857Z,8.60
2023-04-24T05:32:48.810Z,8.60
2023-04-24T05:35:15.720Z,8.60
2023-04-24T05:37:42.428Z,8.70
2023-04-24T05:40:10.035Z,8.70
2023-04-24T05:42:36.894Z,8.70
2023-04-24T05:45:04.386Z,8.60
2023-04-24T05:47:31.141Z,8.70
2023-04-24T05:49:58.003Z,8.70
2023-04-24T05:52:24.748Z,8.70
2023-04-24T05:54:51.962Z,8.70
2023-04-24T05:57:34.139Z,8.70
2023-04-24T06:00:00.928Z,8.70
2023-04-24T06:02:28.801Z,8.70
2023-04-24T06:05:06.647Z,8.70
2023-04-24T06:07:36.231Z,8.70
2023-04-24T06:10:11.916Z,8.70
2023-04-24T06:12:41.902Z,8.70
2023-04-24T06:15:26.215Z,8.80
2023-04-24T06:17:53.131Z,8.70
2023-04-24T06:20:20.186Z,8.70
2023-04-24T06:22:49.884Z,8.80
2023-04-24T06:25:17.001Z,8.80
2023-04-24T06:27:47.188Z,8.80
2023-04-24T06:30:17.022Z,8.80
2023-04-24T06:32:47.390Z,9.00
2023-04-24T06:35:20.165Z,9.10
2023-04-24T06:38:12.171Z,9.10
2023-04-24T06:40:46.605Z,9.20
2023-04-24T06:43:18.347Z,9.30
2023-04-24T06:45:49.372Z,9.20
2023-04-24T06:51:32.619Z,9.40
2023-04-24T06:54:23.033Z,9.50
2023-04-24T06:57:05.448Z,9.60
2023-04-24T06:59:46.046Z,9.60
2023-04-24T07:02:14.671Z,9.60
2023-04-24T07:04:47.479Z,9.60
2023-04-24T07:07:25.702Z,9.50
2023-04-24T07:09:57.295Z,9.50
2023-04-24T07:12:34.055Z,9.50
2023-04-24T07:15:10.757Z,9.60
2023-04-24T07:17:50.172Z,9.60
2023-04-24T07:20:30.840Z,9.70
2023-04-24T07:22:57.594Z,9.60
2023-04-24T07:25:29.117Z,9.50
2023-04-24T07:27:56.119Z,9.30
2023-04-24T07:30:28.933Z,9.30
2023-04-24T07:32:57.071Z,9.20
2023-04-24T07:35:27.278Z,9.20
2023-04-24T07:38:00.557Z,9.20
2023-04-24T07:40:27.667Z,9.40
2023-04-24T07:42:57.074Z,9.40
2023-04-24T07:45:29.191Z,9.50
2023-04-24T07:47:58.078Z,9.60
2023-04-24T07:50:24.886Z,9.70
2023-04-24T07:52:51.869Z,9.90
2023-04-24T07:55:20.313Z,10.10
2023-04-24T07:57:48.532Z,10.20
2023-04-24T08:00:15.614Z,10.20
2023-04-24T08:02:42.876Z,10.20
2023-04-24T08:05:10.314Z,10.20
2023-04-24T08:07:37.416Z,10.20
2023-04-24T08:10:07.867Z,10.30
2023-04-24T08:12:34.673Z,10.30
2023-04-24T08:15:01.683Z,10.30
2023-04-24T08:17:28.603Z,10.40
2023-04-24T08:20:02.343Z,10.30
2023-04-24T08:22:29.969Z,10.30
2023-04-24T08:24:58.188Z,10.10
2023-04-24T08:27:26.214Z,10.10
2023-04-24T08:29:55.387Z,9.90
2023-04-24T08:32:22.178Z,10.00
2023-04-24T08:34:50.004Z,10.10
2023-04-24T08:37:17.044Z,10.20
2023-04-24T08:39:46.846Z,10.30
2023-04-24T08:42:21.085Z,10.40
2023-04-24T08:44:53.283Z,10.50
2023-04-24T08:47:35.659Z,10.70
2023-04-24T08:50:06.982Z,10.90
2023-04-24T08:52:34.650Z,10.80
2023-04-24T08:55:02.915Z,10.70
2023-04-24T08:57:32.195Z,10.60
2023-04-24T08:59:59.888Z,10.50
2023-04-24T09:02:30.039Z,10.40
2023-04-24T09:04:58.366Z,10.50
2023-04-24T09:07:33.181Z,10.60
2023-04-24T09:10:01.221Z,10.70
2023-04-24T09:12:28.290Z,11.00
2023-04-24T09:14:56.176Z,11.00
2023-04-24T09:17:23.921Z,11.00
2023-04-24T09:19:51.182Z,10.90
2023-04-24T09:22:18.225Z,11.00
2023-04-24T09:24:46.767Z,11.00
2023-04-24T09:27:18.243Z,11.10
2023-04-24T09:29:59.571Z,11.30
2023-04-24T09:32:31.045Z,11.60
2023-04-24T09:35:17.123Z,12.00
2023-04-24T09:37:46.493Z,12.20
2023-04-24T09:40:18.592Z,12.40
2023-04-24T09:42:47.355Z,12.60
2023-04-24T09:45:16.195Z,12.70
2023-04-24T09:47:43.788Z,12.80
2023-04-24T09:50:15.937Z,12.80
2023-04-24T09:53:20.889Z,12.90
2023-04-24T09:55:52.777Z,13.00
2023-04-24T09:58:30.720Z,12.90
2023-04-24T10:00:58.237Z,12.90
2023-04-24T10:03:28.096Z,12.60
2023-04-24T10:06:00.604Z,12.20
2023-04-24T10:08:34.101Z,12.00
2023-04-24T10:11:03.896Z,11.90
2023-04-24T10:13:31.379Z,12.00
2023-04-24T10:16:04.131Z,12.20
2023-04-24T10:18:31.933Z,12.70
2023-04-24T10:21:00.769Z,12.70
2023-04-24T10:23:36.216Z,13.20
2023-04-24T10:26:09.148Z,13.10
2023-04-24T10:28:38.054Z,12.70
2023-04-24T10:31:05.591Z,12.60
2023-04-24T10:33:34.579Z,12.50
2023-04-24T10:36:03.615Z,12.40
2023-04-24T10:38:31.560Z,12.20
2023-04-24T10:41:20.846Z,12.00
2023-04-24T10:43:52.856Z,12.20
2023-04-24T10:46:30.127Z,12.30
2023-04-24T10:48:59.285Z,12.40
2023-04-24T10:51:46.310Z,12.40
2023-04-24T10:54:35.630Z,12.40
2023-04-24T10:57:24.423Z,12.40
2023-04-24T11:00:16.897Z,11.90
2023-04-24T11:02:50.428Z,11.90
2023-04-24T11:05:18.765Z,11.90
2023-04-24T11:08:22.152Z,11.90
2023-04-24T11:11:04.734Z,11.90
2023-04-24T11:13:53.261Z,12.00
2023-04-24T11:16:31.645Z,12.20
2023-04-24T11:19:07.374Z,12.10
2023-04-24T11:21:44.146Z,12.30
2023-04-24T11:24:41.237Z,12.40
2023-04-24T11:27:18.822Z,12.20
2023-04-24T11:29:47.588Z,12.20
2023-04-24T11:32:41.342Z,11.90
2023-04-24T11:35:10.092Z,12.00
2023-04-24T11:38:08.118Z,11.80
2023-04-24T11:40:39.036Z,11.70
2023-04-24T11:43:08.254Z,11.80
2023-04-24T11:45:35.511Z,11.70
2023-04-24T11:48:04.296Z,11.70
2023-04-24T11:50:31.438Z,11.70
2023-04-24T11:52:58.688Z,11.80
2023-04-24T11:55:30.797Z,11.80
2023-04-24T11:57:59.849Z,11.70
2023-04-24T12:00:29.492Z,11.70
2023-04-24T12:03:10.688Z,11.70
2023-04-24T12:05:40.983Z,11.90
2023-04-24T12:08:15.162Z,12.00
2023-04-24T12:10:41.947Z,11.90
2023-04-24T12:13:12.571Z,11.90
2023-04-24T12:15:41.726Z,11.90
2023-04-24T12:18:13.849Z,11.70
2023-04-24T12:20:45.855Z,11.60
2023-04-24T12:23:12.604Z,11.50
2023-04-24T12:25:40.111Z,11.50
2023-04-24T12:28:07.028Z,11.50
2023-04-24T12:30:37.165Z,11.60
2023-04-24T12:33:04.493Z,11.70
2023-04-24T12:35:34.372Z,11.70
2023-04-24T12:38:14.016Z,11.70
2023-04-24T12:40:47.883Z,11.70
2023-04-24T12:43:21.949Z,11.70
2023-04-24T12:45:49.395Z,11.80
2023-04-24T12:48:16.514Z,11.60
2023-04-24T12:50:46.040Z,11.60
2023-04-24T12:53:14.237Z,11.60
2023-04-24T12:55:41.578Z,11.60
2023-04-24T12:58:08.892Z,11.70
2023-04-24T13:00:36.020Z,11.80
2023-04-24T13:03:04.283Z,11.80
2023-04-24T13:05:31.873Z,11.60
2023-04-24T13:07:59.341Z,11.70
2023-04-24T13:10:26.206Z,11.70
2023-04-24T13:12:53.040Z,11.80
2023-04-24T13:15:20.105Z,11.80
2023-04-24T13:17:46.867Z,11.90
2023-04-24T13:20:13.832Z,12.00
2023-04-24T13:22:40.970Z,12.00
2023-04-24T13:25:08.240Z,11.80
2023-04-24T13:27:35.100Z,11.80
2023-04-24T13:30:02.302Z,11.90
2023-04-24T13:32:29.931Z,11.70
2023-04-24T13:34:57.715Z,11.70
2023-04-24T13:37:24.755Z,11.60
2023-04-24T13:39:52.386Z,11.70
2023-04-24T13:42:20.082Z,11.60
2023-04-24T13:44:47.010Z,11.60
2023-04-24T13:47:13.780Z,11.50
2023-04-24T13:49:41.121Z,11.50
2023-04-24T13:52:08.492Z,11.50
2023-04-24T13:54:35.724Z,11.60
2023-04-24T13:57:05.283Z,11.40
2023-04-24T13:59:32.271Z,11.40
2023-04-24T14:01:59.176Z,11.40
2023-04-24T14:04:26.087Z,11.40
2023-04-24T14:06:53.278Z,11.40
2023-04-24T14:09:20.316Z,11.50
2023-04-24T14:11:47.137Z,11.50
2023-04-24T14:14:14.051Z,11.40
2023-04-24T14:16:40.983Z,11.40
2023-04-24T14:19:07.979Z,11.40
2023-04-24T14:21:35.015Z,11.40
2023-04-24T14:24:01.959Z,11.30
2023-04-24T14:26:28.901Z,11.30
2023-04-24T14:29:03.963Z,11.20
2023-04-24T14:31:34.398Z,11.20
2023-04-24T14:34:01.197Z,11.20
2023-04-24T14:36:33.754Z,11.20
2023-04-24T14:39:00.647Z,11.20
2023-04-24T14:41:27.477Z,11.20
2023-04-24T14:43:54.490Z,11.30
2023-04-24T14:46:21.808Z,11.40
2023-04-24T14:48:48.664Z,11.40
2023-04-24T14:51:15.847Z,11.50
2023-04-24T14:53:42.654Z,11.60
2023-04-24T14:56:09.516Z,11.60
2023-04-24T14:58:36.441Z,11.60
2023-04-24T15:01:03.350Z,11.70
2023-04-24T15:03:31.040Z,11.80
2023-04-24T15:05:58.386Z,11.80
2023-04-24T15:08:25.254Z,11.70
2023-04-24T15:10:52.284Z,11.60
2023-04-24T15:13:23.054Z,11.70
2023-04-24T15:15:55.374Z,11.80
2023-04-24T15:18:23.391Z,11.80
2023-04-24T15:20:53.312Z,11.80
2023-04-24T15:23:24.014Z,11.80
2023-04-24T15:25:50.975Z,11.90
2023-04-24T15:28:20.506Z,11.80
2023-04-24T15:30:47.619Z,11.80
2023-04-24T15:33:14.976Z,11.70
2023-04-24T15:35:41.975Z,11.60
2023-04-24T15:38:09.050Z,11.60
2023-04-24T15:40:35.834Z,11.50
2023-04-24T15:43:02.595Z,11.40
2023-04-24T15:45:29.514Z,11.40
2023-04-24T15:47:56.742Z,11.50
2023-04-24T15:50:24.006Z,11.50
2023-04-24T15:52:50.854Z,11.50
2023-04-24T15:55:17.686Z,11.50
2023-04-24T15:57:44.546Z,11.50
2023-04-24T16:00:12.193Z,11.40
2023-04-24T16:02:39.620Z,11.30
2023-04-24T16:05:07.470Z,11.40
2023-04-24T16:07:34.623Z,11.40
2023-04-24T16:10:01.442Z,11.50
2023-04-24T16:12:28.467Z,11.50
2023-04-24T16:14:55.555Z,11.50
2023-04-24T16:17:22.274Z,11.50
2023-04-24T16:19:50.281Z,11.60
2023-04-24T16:22:17.059Z,11.60
2023-04-24T16:24:44.634Z,11.50
2023-04-24T16:27:11.471Z,11.50
2023-04-24T16:29:38.260Z,11.50
2023-04-24T16:32:05.036Z,11.50
2023-04-24T16:34:31.760Z,11.40
2023-04-24T16:36:58.852Z,11.40
2023-04-24T16:39:26.809Z,11.40
2023-04-24T16:44:22.036Z,11.40
2023-04-24T16:46:48.850Z,11.30
2023-04-24T16:49:15.801Z,11.30
2023-04-24T16:51:42.434Z,11.20
2023-04-24T16:54:09.459Z,11.20
2023-04-24T16:56:36.728Z,11.20
2023-04-24T16:59:03.560Z,11.20
2023-04-24T17:01:30.396Z,11.30
2023-04-24T17:03:57.451Z,11.20
2023-04-24T17:06:24.749Z,11.20
2023-04-24T17:08:51.531Z,11.20
2023-04-24T17:11:18.546Z,11.20
2023-04-24T17:13:45.399Z,11.20
2023-04-24T17:16:12.422Z,11.20
2023-04-24T17:18:39.286Z,11.30
2023-04-24T17:21:06.227Z,11.30
2023-04-24T17:23:32.927Z,11.30
2023-04-24T17:25:59.852Z,11.40
2023-04-24T17:28:26.636Z,11.40
2023-04-24T17:30:55.633Z,11.20
2023-04-24T17:33:22.300Z,11.30
2023-04-24T17:35:50.524Z,11.20
2023-04-24T17:38:18.367Z,11.20
2023-04-24T17:40:48.261Z,11.10
2023-04-24T17:43:18.265Z,11.10
2023-04-24T17:45:49.132Z,10.90
2023-04-24T17:48:16.150Z,11.00
2023-04-24T17:50:43.040Z,11.00
2023-04-24T17:53:11.044Z,10.90
2023-04-24T17:55:39.068Z,10.90
2023-04-24T17:58:06.437Z,10.90
2023-04-24T18:00:34.427Z,10.80
2023-04-24T18:03:03.526Z,10.80
2023-04-24T18:05:32.069Z,10.70
2023-04-24T18:07:59.627Z,10.70
2023-04-24T18:10:27.790Z,10.70
2023-04-24T18:12:54.971Z,10.60
2023-04-24T18:15:25.471Z,10.60
2023-04-24T18:17:52.728Z,10.50
2023-04-24T18:20:22.280Z,10.50
2023-04-24T18:22:53.672Z,10.40
2023-04-24T18:25:26.804Z,10.40
2023-04-24T18:27:55.775Z,10.30
2023-04-24T18:30:24.322Z,10.20
2023-04-24T18:32:57.689Z,10.10
2023-04-24T18:35:24.521Z,10.20
2023-04-24T18:37:53.273Z,10.20
2023-04-24T18:40:20.798Z,10.10
2023-04-24T18:42:52.881Z,10.10
2023-04-24T18:45:19.797Z,10.00
2023-04-24T18:47:46.661Z,10.10
2023-04-24T18:50:16.554Z,10.00
2023-04-24T18:52:43.621Z,9.90
2023-04-24T18:55:11.001Z,9.90
2023-04-24T18:57:37.733Z,9.80
2023-04-24T19:00:10.542Z,9.70
2023-04-24T19:02:37.767Z,9.70
2023-04-24T19:05:07.385Z,9.60
2023-04-24T19:07:34.209Z,9.50
2023-04-24T19:10:01.097Z,9.50
2023-04-24T19:12:30.676Z,9.40
2023-04-24T19:14:58.161Z,9.40
2023-04-24T19:17:32.101Z,9.30
2023-04-24T19:20:00.341Z,9.30
2023-04-24T19:22:29.089Z,9.20
2023-04-24T19:24:58.495Z,9.10
2023-04-24T19:27:29.184Z,9.10
2023-04-24T19:29:58.583Z,9.10
2023-04-24T19:32:34.494Z,9.10
2023-04-24T19:35:01.329Z,9.10
2023-04-24T19:37:28.449Z,9.10
2023-04-24T19:39:55.577Z,9.10
2023-04-24T19:42:28.730Z,9.00
2023-04-24T19:45:06.276Z,8.90
2023-04-24T19:47:33.132Z,8.90
2023-04-24T19:50:00.328Z,8.80
2023-04-24T19:52:27.862Z,8.80
2023-04-24T19:54:54.868Z,8.60
2023-04-24T19:57:39.440Z,8.60
2023-04-24T20:00:08.274Z,8.60
2023-04-24T20:02:43.355Z,8.60
2023-04-24T20:05:10.876Z,8.50
2023-04-24T20:07:41.252Z,8.50
2023-04-24T20:10:08.720Z,8.40
2023-04-24T20:12:36.834Z,8.40
2023-04-24T20:15:08.064Z,8.30
2023-04-24T20:17:34.896Z,8.20
2023-04-24T20:20:07.917Z,8.00
2023-04-24T20:22:38.992Z,8.00
2023-04-24T20:25:14.131Z,7.90
2023-04-24T20:27:47.280Z,7.90
2023-04-24T20:30:19.918Z,7.90
2023-04-24T20:32:52.699Z,7.80
2023-04-24T20:35:25.357Z,7.60
2023-04-24T20:37:57.541Z,7.50
2023-04-24T20:40:28.236Z,7.40
2023-04-24T20:42:59.470Z,7.40
2023-04-24T20:45:32.120Z,7.30
2023-04-24T20:48:01.540Z,7.30
2023-04-24T20:50:33.368Z,7.40
2023-04-24T20:53:05.417Z,7.40
2023-04-24T20:55:32.729Z,7.40
2023-04-24T20:58:03.470Z,7.40
2023-04-24T21:00:30.508Z,7.40
2023-04-24T21:03:07.257Z,7.30
2023-04-24T21:05:34.564Z,7.30
2023-04-24T21:08:07.088Z,7.30
2023-04-24T21:10:43.309Z,7.30
2023-04-24T21:13:10.227Z,7.20
2023-04-24T21:15:40.450Z,7.30
2023-04-24T21:18:10.059Z,7.20
2023-04-24T21:20:37.119Z,7.20
2023-04-24T21:23:06.289Z,7.20
2023-04-24T21:25:35.478Z,7.20
2023-04-24T21:28:06.096Z,7.10
2023-04-24T21:30:33.159Z,7.30
2023-04-24T21:33:00.293Z,7.30
2023-04-24T21:35:29.980Z,7.30
2023-04-24T21:37:59.776Z,7.30
2023-04-24T21:40:36.047Z,7.40
2023-04-24T21:43:03.096Z,7.20
2023-04-24T21:45:30.094Z,7.30
2023-04-24T21:47:58.510Z,7.30
2023-04-24T21:50:25.612Z,7.20
2023-04-24T21:52:52.616Z,7.20
2023-04-24T21:55:21.774Z,7.30
2023-04-24T21:57:51.397Z,7.20
2023-04-24T22:00:18.417Z,7.20
2023-04-24T22:02:45.393Z,7.20
2023-04-24T22:05:22.708Z,7.10
2023-04-24T22:07:54.361Z,7.20
2023-04-24T22:10:24.424Z,7.30
2023-04-24T22:12:53.939Z,7.30
2023-04-24T22:15:21.165Z,7.40
2023-04-24T22:17:52.474Z,7.40
2023-04-24T22:20:27.568Z,7.30
2023-04-24T22:22:54.346Z,7.30
2023-04-24T22:25:21.917Z,7.30
2023-04-24T22:27:50.860Z,7.30
2023-04-24T22:30:18.115Z,7.30
2023-04-24T22:32:50.991Z,7.30
2023-04-24T22:35:22.089Z,7.30
2023-04-24T22:37:56.897Z,7.40
2023-04-24T22:40:27.186Z,7.30
2023-04-24T22:42:54.186Z,7.30
2023-04-24T22:45:25.630Z,7.30
2023-04-24T22:47:52.981Z,7.30
2023-04-24T22:50:20.399Z,7.40
2023-04-24T22:52:50.207Z,7.30
2023-04-24T22:55:17.052Z,7.30
2023-04-24T22:57:44.147Z,7.30
2023-04-24T23:00:17.267Z,7.30
2023-04-24T23:02:44.501Z,7.30
2023-04-24T23:05:11.865Z,7.30
2023-04-24T23:07:38.726Z,7.40
2023-04-24T23:10:06.488Z,7.20
2023-04-24T23:12:33.774Z,7.20
2023-04-24T23:15:04.986Z,7.20
2023-04-24T23:17:31.738Z,7.30
2023-04-24T23:19:58.862Z,7.20
2023-04-24T23:22:26.047Z,7.20
2023-04-24T23:24:52.884Z,7.10
2023-04-24T23:27:19.607Z,7.20
2023-04-24T23:29:46.275Z,7.30
2023-04-24T23:32:13.048Z,7.30
2023-04-24T23:34:39.969Z,7.30
2023-04-24T23:37:07.455Z,7.30
2023-04-24T23:39:34.314Z,7.20
2023-04-24T23:42:02.716Z,7.30
2023-04-24T23:44:30.410Z,7.30
2023-04-24T23:46:57.487Z,7.30
2023-04-24T23:49:24.256Z,7.20
2023-04-24T23:51:52.228Z,7.30
2023-04-24T23:54:19.319Z,7.20
2023-04-24T23:56:47.932Z,7.30
2023-04-24T23:59:15.297Z,7.20
